Time;durP1;ratioP1;P1;durP2;ratioP2;P2;SDS_P1;SDS_P2;PMS_P1;PMS_P2;Temp;Humidity;BMP_temperature;BMP_pressure;BME280_temperature;BME280_humidity;BME280_pressure;Samples;Min_cycle;Max_cycle;Signal;HPM_P1;HPM_P2
2023/02/09 00:02:06;;;;;;;0.20;0.20;;;;;;;1.26;57.48;103284.06;5078990;28;20062;-82
2023/02/09 00:04:33;;;;;;;0.10;0.10;;;;;;;1.27;57.14;103280.66;5068443;28;20043;-82
2023/02/09 00:07:01;;;;;;;0.20;0.20;;;;;;;1.29;57.19;103275.50;5064270;28;20040;-83
2023/02/09 00:09:27;;;;;;;0.10;0.10;;;;;;;1.28;57.03;103277.25;5064606;28;20100;-82
2023/02/09 00:14:39;;;;;;;0.28;0.28;;;;;;;1.29;57.24;103270.28;5081410;28;20040;-81
2023/02/09 00:17:06;;;;;;;0.20;0.20;;;;;;;1.27;57.30;103275.44;5083242;28;20056;-82
2023/02/09 00:19:32;;;;;;;0.20;0.20;;;;;;;1.26;57.66;103273.63;5077068;28;20056;-82
2023/02/09 00:21:59;;;;;;;0.20;0.20;;;;;;;1.25;57.60;103271.81;5068450;28;20145;-83
2023/02/09 00:24:25;;;;;;;0.20;0.20;;;;;;;1.24;57.47;103272.63;5067527;28;20047;-83
2023/02/09 00:26:51;;;;;;;0.50;0.50;;;;;;;1.24;57.59;103272.63;5069125;28;20021;-82
2023/02/09 00:29:21;;;;;;;0.10;0.10;;;;;;;1.23;57.81;103270.81;5081124;28;20024;-83
2023/02/09 00:31:50;;;;;;;0.20;0.20;;;;;;;1.21;57.79;103262.03;5071689;28;20036;-83
2023/02/09 00:34:18;;;;;;;0.17;0.17;;;;;;;1.21;58.04;103264.63;5071159;28;20547;-82
2023/02/09 00:36:44;;;;;;;0.20;0.20;;;;;;;1.19;58.34;103265.34;5067234;28;20036;-81
2023/02/09 00:39:10;;;;;;;0.70;0.70;;;;;;;1.18;58.30;103267.06;5081743;28;20096;-82
2023/02/09 00:42:09;;;;;;;0.10;0.10;;;;;;;1.17;58.51;103261.75;5084801;28;20640;-82
2023/02/09 00:44:22;;;;;;;0.10;0.10;;;;;;;1.15;58.74;103258.13;5083069;28;20600;-83
2023/02/09 00:46:51;;;;;;;0.20;0.20;;;;;;;1.12;58.29;103258.84;5103366;28;20013;-81
2023/02/09 00:49:17;;;;;;;0.20;0.20;;;;;;;1.11;58.63;103259.69;5091945;28;20446;-80
2023/02/09 00:51:43;;;;;;;0.55;0.55;;;;;;;1.11;58.13;103260.59;5088674;28;20533;-82
2023/02/09 00:54:09;;;;;;;0.10;0.10;;;;;;;1.10;58.54;103255.28;5077871;28;20037;-82
2023/02/09 00:56:35;;;;;;;0.40;0.40;;;;;;;1.09;58.36;103259.59;5076834;28;20399;-81
2023/02/09 00:59:01;;;;;;;0.20;0.20;;;;;;;1.07;58.20;103260.31;5070872;28;20033;-82
2023/02/09 01:01:28;;;;;;;0.20;0.20;;;;;;;1.06;58.35;103263.72;5084804;28;20169;-82
2023/02/09 01:03:54;;;;;;;0.20;0.20;;;;;;;1.06;58.09;103268.94;5078570;28;20028;-82
2023/02/09 01:06:21;;;;;;;0.38;0.38;;;;;;;1.05;58.67;103265.44;5071222;28;20036;-81
2023/02/09 01:08:47;;;;;;;0.17;0.17;;;;;;;1.06;58.27;103264.66;5065778;28;20045;-82
2023/02/09 01:11:14;;;;;;;0.95;0.95;;;;;;;1.06;58.64;103275.09;5066727;28;20044;-82
2023/02/09 01:13:41;;;;;;;0.28;0.28;;;;;;;1.06;59.08;103268.94;5072770;28;20044;-82
2023/02/09 01:16:09;;;;;;;0.77;0.77;;;;;;;1.06;58.75;103268.94;5069232;28;20115;-82
2023/02/09 01:18:35;;;;;;;0.20;0.20;;;;;;;1.05;58.67;103269.78;5070225;28;20482;-81
2023/02/09 01:21:02;;;;;;;0.20;0.20;;;;;;;1.05;58.61;103260.22;5068466;28;20400;-81
2023/02/09 01:23:28;;;;;;;0.20;0.20;;;;;;;1.06;58.66;103261.13;5065078;28;20025;-81
2023/02/09 01:26:04;;;;;;;0.20;0.20;;;;;;;1.09;59.10;103259.59;5062940;28;20025;-81
2023/02/09 01:28:30;;;;;;;0.28;0.28;;;;;;;1.04;58.21;103255.81;5068849;28;20021;-81
2023/02/09 01:30:56;;;;;;;0.10;0.10;;;;;;;1.04;58.48;103253.19;5069647;28;20028;-81
2023/02/09 01:33:23;;;;;;;0.20;0.20;;;;;;;1.04;58.54;103255.81;5070049;28;20105;-81
2023/02/09 01:35:49;;;;;;;0.10;0.10;;;;;;;1.06;58.17;103258.50;5062356;28;20564;-81
2023/02/09 01:38:16;;;;;;;0.50;0.50;;;;;;;1.03;58.95;103243.56;5063566;28;20032;-81
2023/02/09 01:40:50;;;;;;;0.90;0.80;;;;;;;1.08;58.42;103251.66;5060839;28;20488;-81
2023/02/09 01:43:16;;;;;;;0.10;0.10;;;;;;;1.04;58.45;103254.94;5063893;28;20033;-81
2023/02/09 01:48:29;;;;;;;0.10;0.10;;;;;;;1.07;58.09;103239.41;5051795;28;20914;-81
2023/02/09 01:50:59;;;;;;;0.43;0.43;;;;;;;1.06;58.51;103248.06;5042969;28;20450;-81
2023/02/09 01:53:27;;;;;;;0.43;0.43;;;;;;;1.06;58.50;103240.22;5055808;28;20025;-81
2023/02/09 01:56:03;;;;;;;0.10;0.10;;;;;;;1.02;58.37;103231.31;5054440;28;20021;-81
2023/02/09 01:58:30;;;;;;;0.20;0.20;;;;;;;0.98;58.89;103234.56;5053059;28;20523;-82
2023/02/09 02:00:56;;;;;;;0.10;0.10;;;;;;;1.01;58.85;103233.84;5053745;28;20041;-81
2023/02/09 02:03:26;;;;;;;0.20;0.20;;;;;;;1.03;58.46;103227.91;5051654;28;20029;-82
2023/02/09 02:06:01;;;;;;;0.30;0.30;;;;;;;1.03;58.14;103221.78;5052730;28;20033;-82
2023/02/09 02:08:37;;;;;;;0.20;0.20;;;;;;;1.06;58.31;103219.34;5052928;28;20435;-82
2023/02/09 02:11:04;;;;;;;0.20;0.20;;;;;;;1.03;58.37;103212.22;5052013;28;20029;-82
2023/02/09 02:13:30;;;;;;;0.20;0.20;;;;;;;1.03;58.40;103216.56;5050704;28;20025;-82
2023/02/09 02:16:10;;;;;;;0.20;0.20;;;;;;;1.07;58.01;103213.31;5051288;28;20044;-82
2023/02/09 02:26:57;;;;;;;0.20;0.20;;;;;;;1.08;57.72;103215.13;5120349;27;20362;-81
2023/02/09 02:32:25;;;;;;;0.20;0.20;;;;;;;1.08;57.75;103199.44;5112299;27;20348;-81
2023/02/09 02:35:04;;;;;;;0.20;0.20;;;;;;;1.13;57.87;103209.34;5079670;28;20051;-81
2023/02/09 02:40:45;;;;;;;0.20;0.20;;;;;;;1.11;57.74;103191.81;5111780;27;20392;-82
2023/02/09 02:46:25;;;;;;;0.20;0.20;;;;;;;1.09;58.06;103186.47;5117676;27;20850;-82
2023/02/09 02:48:57;;;;;;;0.20;0.20;;;;;;;1.03;58.06;103195.69;5119361;28;20039;-82
2023/02/09 02:51:35;;;;;;;0.30;0.30;;;;;;;1.04;58.54;103192.28;5123849;27;20114;-82
2023/02/09 02:54:08;;;;;;;0.30;0.30;;;;;;;1.02;58.50;103199.09;5118566;28;20076;-82
2023/02/09 02:56:39;;;;;;;0.13;0.13;;;;;;;1.01;58.40;103197.28;5100643;28;20233;-81
2023/02/09 02:59:11;;;;;;;0.25;0.25;;;;;;;1.00;58.28;103195.50;5113858;28;20054;-81
2023/02/09 03:01:42;;;;;;;0.45;0.45;;;;;;;1.01;58.20;103194.69;5113474;28;20024;-81
2023/02/09 03:04:10;;;;;;;0.22;0.22;;;;;;;1.00;58.40;103185.97;5116435;28;20551;-82
2023/02/09 03:06:37;;;;;;;0.20;0.20;;;;;;;1.00;57.97;103185.97;5120256;28;20080;-81
2023/02/09 03:09:04;;;;;;;0.10;0.10;;;;;;;1.01;58.74;103181.63;5114231;28;20087;-82
2023/02/09 03:11:43;;;;;;;0.10;0.10;;;;;;;1.02;58.72;103170.38;5103938;28;20509;-81
2023/02/09 03:14:22;;;;;;;0.20;0.20;;;;;;;1.00;58.58;103170.31;5106880;28;20024;-82
2023/02/09 03:17:23;;;;;;;0.10;0.10;;;;;;;1.02;58.37;103158.22;5113242;28;20043;-82
2023/02/09 03:19:58;;;;;;;0.20;0.20;;;;;;;0.95;58.79;103162.19;5098806;28;20055;-81
2023/02/09 03:22:45;;;;;;;0.10;0.10;;;;;;;0.98;59.17;103157.97;5097104;28;20020;-81
2023/02/09 03:25:19;;;;;;;0.10;0.10;;;;;;;0.93;58.80;103157.72;5096191;28;20028;-80
2023/02/09 03:27:56;;;;;;;0.20;0.20;;;;;;;0.93;58.69;103168.16;5097721;28;20070;-81
2023/02/09 03:30:23;;;;;;;0.10;0.10;;;;;;;0.85;58.93;103162.50;5098133;28;20028;-80
2023/02/09 03:32:55;;;;;;;0.47;0.47;;;;;;;0.86;58.74;103161.69;5098950;28;20032;-81
2023/02/09 03:35:24;;;;;;;0.10;0.10;;;;;;;0.86;59.21;103159.09;5095426;28;20024;-81
2023/02/09 03:37:50;;;;;;;0.20;0.20;;;;;;;0.86;58.89;103155.56;5099843;28;20052;-81
2023/02/09 03:40:18;;;;;;;0.40;0.40;;;;;;;0.85;59.33;103149.44;5105759;28;20133;-81
2023/02/09 03:42:44;;;;;;;0.20;0.20;;;;;;;0.84;58.59;103145.03;5100600;28;20372;-81
2023/02/09 03:45:10;;;;;;;0.13;0.13;;;;;;;0.80;58.73;103146.56;5105450;28;20085;-82
2023/02/09 03:47:37;;;;;;;0.20;0.20;;;;;;;0.83;58.87;103152.78;5103487;28;20095;-81
2023/02/09 03:50:05;;;;;;;0.35;0.35;;;;;;;0.82;58.61;103140.53;5105028;28;20066;-81
2023/02/09 03:52:31;;;;;;;0.20;0.20;;;;;;;0.81;59.22;103137.03;5103797;28;20035;-82
2023/02/09 03:55:02;;;;;;;0.20;0.20;;;;;;;0.82;58.98;103138.81;5113418;28;20364;-82
2023/02/09 03:57:28;;;;;;;0.10;0.10;;;;;;;0.83;58.69;103131.91;5098865;28;20017;-81
2023/02/09 03:59:54;;;;;;;0.47;0.47;;;;;;;0.81;58.55;103126.59;5086621;28;20047;-81
2023/02/09 04:02:20;;;;;;;0.30;0.30;;;;;;;0.80;59.11;103128.28;5082987;28;20029;-82
2023/02/09 04:04:46;;;;;;;1.50;1.50;;;;;;;0.78;58.79;103129.91;5082438;28;20025;-81
2023/02/09 04:07:12;;;;;;;1.77;1.65;;;;;;;0.80;58.82;103133.50;5081089;28;20399;-81
2023/02/09 04:09:39;;;;;;;0.30;0.30;;;;;;;0.80;58.73;103143.06;5083255;28;20033;-80
2023/02/09 04:12:05;;;;;;;0.15;0.15;;;;;;;0.81;58.32;103142.25;5083300;28;20021;-81
2023/02/09 04:14:31;;;;;;;0.10;0.10;;;;;;;0.83;58.64;103139.72;5083571;28;20041;-81
2023/02/09 04:16:57;;;;;;;0.50;0.50;;;;;;;0.85;58.67;103141.63;5087093;28;20035;-80
2023/02/09 04:19:23;;;;;;;0.20;0.20;;;;;;;0.85;58.45;103141.63;5082095;28;20016;-82
2023/02/09 04:21:49;;;;;;;0.20;0.20;;;;;;;0.86;58.80;103138.19;5082209;28;20032;-82
2023/02/09 04:24:15;;;;;;;0.10;0.10;;;;;;;0.85;58.60;103139.00;5081779;28;20036;-81
2023/02/09 04:26:41;;;;;;;0.20;0.20;;;;;;;0.85;58.42;103139.00;5080517;28;20032;-81
2023/02/09 04:29:07;;;;;;;0.20;0.20;;;;;;;0.84;58.57;103118.94;5082041;28;20055;-81
2023/02/09 04:31:34;;;;;;;0.25;0.25;;;;;;;0.85;58.92;103132.88;5082304;28;20471;-81
2023/02/09 04:34:00;;;;;;;0.20;0.20;;;;;;;0.86;58.29;103130.38;5085332;28;20027;-82
2023/02/09 04:36:26;;;;;;;0.73;0.73;;;;;;;0.87;58.50;103126.03;5084391;28;20102;-81
2023/02/09 04:38:52;;;;;;;0.17;0.17;;;;;;;0.87;58.33;103129.53;5080737;28;20048;-82
2023/02/09 04:41:18;;;;;;;0.10;0.10;;;;;;;0.87;58.21;103123.41;5081292;28;20032;-81
2023/02/09 04:43:45;;;;;;;0.10;0.10;;;;;;;0.85;58.49;103112.91;5081393;28;20056;-82
2023/02/09 04:46:14;;;;;;;0.10;0.10;;;;;;;0.86;58.88;103114.72;5083356;28;20321;-82
2023/02/09 04:48:40;;;;;;;0.20;0.20;;;;;;;0.83;58.48;103129.28;5081473;28;20037;-82
2023/02/09 04:51:07;;;;;;;0.20;0.20;;;;;;;0.85;58.70;103143.31;5081635;28;20028;-82
2023/02/09 04:53:33;;;;;;;0.15;0.15;;;;;;;0.84;58.41;103158.09;5079352;28;20467;-82
2023/02/09 04:55:59;;;;;;;0.40;0.40;;;;;;;0.86;58.12;103152.94;5093926;28;20043;-82
2023/02/09 05:01:16;;;;;;;0.10;0.10;;;;;;;0.92;58.52;103132.41;5087385;28;20519;-83
2023/02/09 05:03:42;;;;;;;0.15;0.15;;;;;;;0.90;58.11;103140.16;5086314;28;20050;-81
2023/02/09 05:06:09;;;;;;;0.20;0.20;;;;;;;0.91;58.22;103144.56;5086891;28;20052;-82
2023/02/09 05:08:35;;;;;;;0.20;0.20;;;;;;;0.91;58.71;103144.56;5083977;28;20471;-82
2023/02/09 05:11:01;;;;;;;0.20;0.20;;;;;;;0.92;58.05;103161.13;5084136;28;20568;-83
2023/02/09 05:13:27;;;;;;;0.25;0.25;;;;;;;0.91;58.10;103164.53;5078353;28;20515;-81
2023/02/09 05:15:54;;;;;;;0.73;0.73;;;;;;;0.89;57.71;103158.34;5080449;28;20081;-82
2023/02/09 05:18:20;;;;;;;0.10;0.10;;;;;;;0.93;58.21;103158.59;5079716;28;20135;-81
2023/02/09 05:20:47;;;;;;;0.60;0.60;;;;;;;0.96;57.47;103158.78;5080445;28;20024;-81
2023/02/09 05:23:14;;;;;;;0.20;0.20;;;;;;;0.97;57.35;103164.88;5082230;28;20028;-81
2023/02/09 05:25:40;;;;;;;0.20;0.20;;;;;;;1.00;57.46;103174.59;5079952;28;20024;-82
2023/02/09 05:28:07;;;;;;;0.32;0.32;;;;;;;1.01;57.29;103168.56;5083686;28;20028;-82
2023/02/09 05:30:33;;;;;;;0.20;0.20;;;;;;;1.01;57.25;103166.88;5084573;28;20028;-82
2023/02/09 05:32:59;;;;;;;1.08;1.08;;;;;;;0.98;56.33;103166.69;5100420;28;20043;-81
2023/02/09 05:35:26;;;;;;;0.10;0.10;;;;;;;1.06;56.77;103172.34;5089995;28;20020;-81
2023/02/09 05:37:52;;;;;;;0.20;0.20;;;;;;;1.09;56.58;103170.81;5087190;28;20509;-82
2023/02/09 05:40:18;;;;;;;0.20;0.20;;;;;;;1.12;56.19;103175.31;5081711;28;20384;-82
2023/02/09 05:42:44;;;;;;;0.65;0.65;;;;;;;1.17;56.09;103173.84;5080377;28;20020;-81
2023/02/09 05:45:10;;;;;;;1.27;1.17;;;;;;;1.21;56.82;103167.09;5081571;28;20071;-82
2023/02/09 05:47:36;;;;;;;0.20;0.20;;;;;;;1.20;56.13;103173.16;5084351;28;20028;-81
2023/02/09 05:50:03;;;;;;;0.20;0.20;;;;;;;1.20;55.84;103167.94;5081418;28;20119;-82
2023/02/09 05:52:29;;;;;;;0.50;0.50;;;;;;;1.16;55.76;103171.16;5079443;28;20153;-82
2023/02/09 05:54:55;;;;;;;0.10;0.10;;;;;;;1.18;56.00;103172.16;5081171;28;20119;-82
2023/02/09 05:57:21;;;;;;;0.20;0.20;;;;;;;1.18;56.36;103173.03;5082202;28;20028;-81
2023/02/09 05:59:47;;;;;;;0.20;0.20;;;;;;;1.16;56.54;103177.31;5087016;28;20028;-82
2023/02/09 06:02:13;;;;;;;0.10;0.10;;;;;;;1.12;56.43;103185.75;5084301;28;20509;-81
2023/02/09 06:04:39;;;;;;;0.20;0.20;;;;;;;1.13;56.70;103192.78;5083080;28;20390;-81
2023/02/09 06:07:05;;;;;;;0.30;0.30;;;;;;;1.10;56.91;103197.84;5083901;28;20456;-82
2023/02/09 06:09:31;;;;;;;0.15;0.15;;;;;;;1.11;56.35;103190.09;5080565;28;20029;-82
2023/02/09 06:11:57;;;;;;;0.10;0.10;;;;;;;1.08;56.47;103189.00;5080391;28;20481;-81
2023/02/09 06:14:24;;;;;;;0.10;0.10;;;;;;;1.09;56.72;103193.44;5081486;28;20116;-82
2023/02/09 06:16:50;;;;;;;0.40;0.40;;;;;;;1.10;56.44;103197.84;5080047;28;20398;-81
2023/02/09 06:19:19;;;;;;;0.20;0.20;;;;;;;1.08;56.61;103202.06;5081214;28;20533;-82
2023/02/09 06:21:45;;;;;;;0.50;0.50;;;;;;;1.09;56.59;103207.38;5076587;28;20483;-82
2023/02/09 06:24:15;;;;;;;0.73;0.73;;;;;;;1.14;56.73;103215.47;5076094;28;20493;-81
2023/02/09 06:26:42;;;;;;;0.20;0.20;;;;;;;1.13;56.49;103218.88;5075693;28;20085;-81
2023/02/09 06:29:08;;;;;;;0.50;0.50;;;;;;;1.10;56.14;103214.38;5084923;28;20028;-82
2023/02/09 06:31:35;;;;;;;0.20;0.20;;;;;;;1.15;56.41;103218.97;5081749;28;20024;-81
2023/02/09 06:34:01;;;;;;;0.20;0.20;;;;;;;1.14;56.21;103210.25;5081520;28;20135;-81
2023/02/09 06:36:27;;;;;;;0.20;0.20;;;;;;;1.14;56.19;103225.91;5087700;28;20031;-82
2023/02/09 06:38:53;;;;;;;0.20;0.20;;;;;;;1.10;56.77;103223.94;5097568;28;20457;-81
2023/02/09 06:41:19;;;;;;;0.20;0.20;;;;;;;1.09;56.48;103223.03;5090026;28;20024;-80
2023/02/09 06:43:45;;;;;;;0.10;0.10;;;;;;;1.13;56.85;103225.03;5101551;28;20028;-82
2023/02/09 06:46:12;;;;;;;0.20;0.20;;;;;;;1.15;56.87;103230.34;5085589;28;20422;-81
2023/02/09 06:48:38;;;;;;;0.20;0.20;;;;;;;1.11;56.90;103236.19;5084871;28;20107;-80
2023/02/09 06:51:09;;;;;;;0.10;0.10;;;;;;;1.12;57.09;103222.31;5079886;28;20092;-81
2023/02/09 06:53:37;;;;;;;0.20;0.20;;;;;;;1.09;57.26;103222.16;5086474;28;20601;-83
2023/02/09 06:56:04;;;;;;;0.15;0.15;;;;;;;1.07;56.85;103222.06;5096359;28;20089;-81
2023/02/09 06:58:30;;;;;;;1.10;1.10;;;;;;;1.09;57.09;103216.94;5094363;28;20059;-82
2023/02/09 07:01:08;;;;;;;0.57;0.57;;;;;;;1.12;56.94;103206.63;5091590;28;20469;-80
2023/02/09 07:03:35;;;;;;;0.10;0.10;;;;;;;1.06;57.10;103201.97;5099323;28;20025;-81
2023/02/09 07:08:41;;;;;;;0.38;0.38;;;;;;;1.08;57.29;103204.66;5115959;27;20396;-81
2023/02/09 07:11:10;;;;;;;0.10;0.10;;;;;;;1.05;56.92;103199.28;5108915;28;20406;-82
2023/02/09 07:13:36;;;;;;;0.20;0.20;;;;;;;1.04;57.38;103189.66;5115761;28;20028;-81
2023/02/09 07:16:05;;;;;;;0.17;0.17;;;;;;;1.03;57.59;103188.72;5100391;28;20029;-82
2023/02/09 07:18:31;;;;;;;0.20;0.20;;;;;;;1.03;57.23;103190.47;5090535;28;20035;-81
2023/02/09 07:21:00;;;;;;;0.10;0.10;;;;;;;1.07;57.32;103200.25;5094202;28;20033;-82
2023/02/09 07:23:27;;;;;;;0.13;0.13;;;;;;;1.07;57.48;103188.13;5098095;28;20107;-83
2023/02/09 07:25:54;;;;;;;0.15;0.15;;;;;;;1.04;57.73;103208.81;5081302;28;20110;-82
2023/02/09 07:28:20;;;;;;;0.20;0.20;;;;;;;1.06;57.27;103209.81;5098292;28;20023;-82
2023/02/09 07:30:50;;;;;;;1.55;1.45;;;;;;;1.07;57.31;103221.16;5094383;28;20028;-82
2023/02/09 07:33:17;;;;;;;0.20;0.20;;;;;;;1.14;57.83;103220.69;5096059;28;20036;-82
2023/02/09 07:35:44;;;;;;;2.03;1.92;;;;;;;1.16;57.71;103205.09;5086192;28;20028;-82
2023/02/09 07:38:10;;;;;;;0.20;0.20;;;;;;;1.18;57.31;103214.81;5087348;28;20025;-82
2023/02/09 07:40:37;;;;;;;0.30;0.30;;;;;;;1.20;57.37;103208.00;5077410;28;20036;-82
2023/02/09 07:43:05;;;;;;;0.20;0.20;;;;;;;1.24;57.49;103214.28;5087760;28;20047;-81
2023/02/09 07:45:31;;;;;;;0.20;0.20;;;;;;;1.26;57.79;103228.34;5097489;28;20051;-81
2023/02/09 07:47:58;;;;;;;0.55;0.55;;;;;;;1.30;57.43;103225.09;5102810;28;20028;-83
2023/02/09 07:50:24;;;;;;;0.20;0.20;;;;;;;1.32;57.88;103226.06;5094616;28;20044;-82
2023/02/09 07:52:53;;;;;;;0.20;0.20;;;;;;;1.36;57.51;103224.50;5102956;28;20027;-83
2023/02/09 07:55:19;;;;;;;0.80;0.80;;;;;;;1.35;57.96;103225.34;5094549;28;20024;-80
2023/02/09 07:57:45;;;;;;;0.15;0.15;;;;;;;1.36;57.79;103227.13;5099652;28;20028;-81
2023/02/09 08:00:11;;;;;;;0.10;0.10;;;;;;;1.42;57.74;103235.31;5099306;28;20032;-80
2023/02/09 08:02:38;;;;;;;0.30;0.30;;;;;;;1.47;57.27;103226.03;5097964;28;20038;-82
2023/02/09 08:05:11;;;;;;;0.10;0.10;;;;;;;1.52;57.58;103234.13;5101884;28;20028;-83
2023/02/09 08:07:37;;;;;;;;;;;;;;;1.67;57.10;103231.44;5102432;28;20567;-82
2023/02/09 08:10:03;;;;;;;0.30;0.30;;;;;;;1.59;57.37;103231.03;5102957;28;19916;-79
2023/02/09 08:13:02;;;;;;;0.20;0.20;;;;;;;1.66;57.36;103232.25;5115826;28;20038;-82
2023/02/09 08:15:20;;;;;;;0.30;0.30;;;;;;;1.69;57.42;103229.84;5086984;28;20041;-82
2023/02/09 08:17:48;;;;;;;0.20;0.20;;;;;;;1.74;57.37;103220.53;5081542;28;20029;-83
2023/02/09 08:20:17;;;;;;;0.20;0.20;;;;;;;1.81;57.23;103225.28;5086700;28;20044;-80
2023/02/09 08:22:50;;;;;;;1.50;1.40;;;;;;;1.86;57.08;103217.69;5087499;28;20076;-80
2023/02/09 08:25:21;;;;;;;0.20;0.20;;;;;;;1.91;57.23;103214.50;5096121;28;20032;-81
2023/02/09 08:27:47;;;;;;;0.10;0.10;;;;;;;1.94;56.89;103209.44;5085766;28;20020;-82
2023/02/09 08:30:16;;;;;;;0.17;0.17;;;;;;;1.99;56.88;103212.28;5085644;28;20037;-82
2023/02/09 08:32:42;;;;;;;0.10;0.10;;;;;;;1.97;56.88;103213.03;5083333;28;20041;-83
2023/02/09 08:35:09;;;;;;;0.13;0.13;;;;;;;2.02;57.02;103219.41;5092940;28;20062;-80
2023/02/09 08:37:35;;;;;;;0.30;0.30;;;;;;;2.06;57.07;103224.88;5098853;28;20020;-81
2023/02/09 08:40:01;;;;;;;0.20;0.20;;;;;;;2.08;56.63;103212.81;5086345;28;20089;-84
2023/02/09 08:42:27;;;;;;;0.10;0.10;;;;;;;2.10;56.60;103211.16;5071147;28;20059;-82
2023/02/09 08:44:53;;;;;;;0.20;0.20;;;;;;;2.17;56.80;103191.47;5070167;28;20041;-83
2023/02/09 08:47:19;;;;;;;0.10;0.10;;;;;;;2.22;56.88;103220.47;5080666;28;20027;-83
2023/02/09 08:49:45;;;;;;;0.13;0.13;;;;;;;2.25;56.70;103205.81;5083023;28;20040;-81
2023/02/09 08:52:11;;;;;;;0.17;0.17;;;;;;;2.32;56.69;103203.53;5072210;28;20021;-83
2023/02/09 08:54:38;;;;;;;0.20;0.20;;;;;;;2.37;56.58;103202.97;5078265;28;20037;-81
2023/02/09 08:57:04;;;;;;;0.10;0.10;;;;;;;2.41;56.72;103201.41;5077728;28;20020;-81
2023/02/09 08:59:30;;;;;;;0.10;0.10;;;;;;;2.47;56.37;103206.97;5083080;28;20032;-82
2023/02/09 09:01:56;;;;;;;0.30;0.30;;;;;;;2.51;56.27;103206.28;5081640;28;20498;-82
2023/02/09 09:04:22;;;;;;;0.50;0.50;;;;;;;2.57;56.24;103203.97;5083176;28;20431;-82
2023/02/09 09:06:48;;;;;;;0.10;0.10;;;;;;;2.66;56.56;103221.88;5083121;28;20399;-82
2023/02/09 09:09:14;;;;;;;0.10;0.10;;;;;;;2.68;56.26;103232.41;5073772;28;20036;-82
2023/02/09 09:11:41;;;;;;;0.68;0.68;;;;;;;2.76;56.19;103220.63;5069939;28;20044;-81
2023/02/09 09:14:07;;;;;;;0.30;0.30;;;;;;;2.83;56.13;103199.19;5077740;28;20032;-81
2023/02/09 09:16:33;;;;;;;0.20;0.20;;;;;;;2.92;56.00;103209.22;5064703;28;20414;-83
2023/02/09 09:18:59;;;;;;;0.20;0.20;;;;;;;2.99;55.76;103207.78;5064748;28;20492;-82
2023/02/09 09:21:25;;;;;;;0.45;0.45;;;;;;;3.02;55.48;103208.84;5077220;28;20062;-84
2023/02/09 09:23:51;;;;;;;0.57;0.57;;;;;;;3.10;55.90;103210.94;5079867;28;20033;-83
2023/02/09 09:26:18;;;;;;;0.10;0.10;;;;;;;3.10;55.38;103211.81;5081134;28;20032;-83
2023/02/09 09:28:47;;;;;;;0.45;0.45;;;;;;;3.23;55.44;103219.47;5083916;28;20064;-83
2023/02/09 09:31:15;;;;;;;0.32;0.32;;;;;;;3.32;55.70;103218.13;5079899;28;20491;-82
2023/02/09 09:33:42;;;;;;;0.10;0.10;;;;;;;3.40;55.29;103216.75;5083124;28;20029;-81
2023/02/09 09:36:09;;;;;;;0.20;0.20;;;;;;;3.45;55.32;103215.28;5084427;28;20027;-82
2023/02/09 09:38:37;;;;;;;0.13;0.13;;;;;;;3.49;55.05;103219.84;5085698;28;20373;-82
2023/02/09 09:41:05;;;;;;;0.43;0.43;;;;;;;3.64;55.21;103238.00;5085041;28;20230;-83
2023/02/09 09:43:35;;;;;;;0.20;0.20;;;;;;;3.67;54.92;103238.13;5082608;28;20067;-84
2023/02/09 09:46:04;;;;;;;5.28;1.27;;;;;;;3.75;54.68;103246.38;5082201;28;20028;-82
2023/02/09 09:48:41;;;;;;;0.57;0.57;;;;;;;3.91;54.55;103254.97;5095032;28;20024;-83
2023/02/09 09:51:33;;;;;;;0.20;0.20;;;;;;;3.97;54.43;103244.75;5090043;28;20024;-83
2023/02/09 09:54:02;;;;;;;0.22;0.22;;;;;;;3.99;54.71;103245.72;5083836;28;20033;-83
2023/02/09 09:56:31;;;;;;;0.43;0.43;;;;;;;4.05;54.86;103246.00;5103076;28;20027;-82
2023/02/09 09:58:58;;;;;;;0.10;0.10;;;;;;;4.14;54.96;103246.41;5088948;28;20032;-81
2023/02/09 10:01:27;;;;;;;0.20;0.20;;;;;;;4.23;54.93;103245.06;5097879;28;20033;-82
2023/02/09 10:03:59;;;;;;;0.10;0.10;;;;;;;4.28;54.69;103254.91;5096110;28;20056;-83
2023/02/09 10:06:31;;;;;;;0.40;0.40;;;;;;;4.39;54.49;103242.28;5084146;28;20032;-82
2023/02/09 10:09:04;;;;;;;0.40;0.40;;;;;;;4.42;54.55;103242.41;5087318;28;20045;-82
2023/02/09 10:11:46;;;;;;;0.25;0.25;;;;;;;4.47;54.58;103246.13;5100504;28;20035;-82
2023/02/09 10:14:12;;;;;;;0.20;0.20;;;;;;;4.50;54.22;103246.25;5084970;28;20032;-84
2023/02/09 10:16:38;;;;;;;0.55;0.55;;;;;;;4.52;54.26;103246.31;5092431;28;20036;-83
2023/02/09 10:19:16;;;;;;;0.10;0.10;;;;;;;4.61;54.53;103245.81;5082817;28;20108;-83
2023/02/09 10:21:42;;;;;;;1.95;1.08;;;;;;;4.66;54.45;103246.91;5086766;28;20036;-83
2023/02/09 10:24:22;;;;;;;0.10;0.10;;;;;;;4.75;54.32;103254.28;5093706;28;20081;-82
2023/02/09 10:27:13;;;;;;;0.10;0.10;;;;;;;4.78;54.76;103257.97;5103308;28;20036;-83
2023/02/09 10:29:40;;;;;;;0.55;0.55;;;;;;;4.78;54.83;103260.59;5103414;28;20036;-83
2023/02/09 10:32:15;;;;;;;0.20;0.20;;;;;;;4.85;54.97;103270.53;5100211;28;20032;-82
2023/02/09 10:34:47;;;;;;;0.50;0.50;;;;;;;4.90;54.73;103267.19;5084239;28;20027;-81
2023/02/09 10:45:39;;;;;;;0.20;0.20;;;;;;;5.08;55.17;103257.47;5097803;27;20397;-81
2023/02/09 10:48:18;;;;;;;0.88;0.88;;;;;;;5.16;55.13;103252.53;5092642;28;20036;-83
2023/02/09 10:53:40;;;;;;;0.20;0.20;;;;;;;5.23;55.26;103259.81;5111739;27;20393;-84
2023/02/09 10:58:51;;;;;;;1.48;1.38;;;;;;;5.39;55.27;103274.50;5112518;27;20415;-82
2023/02/09 11:01:22;;;;;;;0.10;0.10;;;;;;;5.43;55.43;103275.53;5110256;28;20020;-83
2023/02/09 11:06:56;;;;;;;0.88;0.65;;;;;;;5.63;55.63;103273.69;5071474;27;1861037;-82
2023/02/09 11:09:34;;;;;;;0.20;0.20;;;;;;;5.72;55.36;103274.06;5118052;28;20028;-84
2023/02/09 11:12:01;;;;;;;0.13;0.13;;;;;;;5.80;55.60;103271.72;5125707;28;20058;-83
2023/02/09 11:14:27;;;;;;;0.10;0.10;;;;;;;5.85;54.85;103291.22;5116816;28;20031;-83
2023/02/09 11:19:51;;;;;;;0.20;0.20;;;;;;;6.10;54.85;103279.91;5117467;27;20838;-83
2023/02/09 11:25:36;;;;;;;0.85;0.85;;;;;;;6.32;54.56;103278.09;5094842;27;20419;-83
2023/02/09 11:28:31;;;;;;;0.15;0.15;;;;;;;6.37;54.03;103276.53;5070803;28;20079;-82
2023/02/09 11:31:37;;;;;;;0.17;0.17;;;;;;;6.32;53.97;103278.09;5071835;28;20079;-83
2023/02/09 11:34:33;;;;;;;1.50;1.27;;;;;;;6.30;54.18;103266.63;5077905;28;20037;-83
2023/02/09 11:40:00;;;;;;;1.23;1.23;;;;;;;6.20;54.89;103275.03;5125573;27;20127;-82
2023/02/09 11:42:46;;;;;;;0.17;0.17;;;;;;;6.15;55.27;103265.19;5108844;28;20057;-83
2023/02/09 11:45:41;;;;;;;1.77;1.67;;;;;;;6.21;55.40;103263.66;5105657;28;20201;-82
2023/02/09 11:48:18;;;;;;;0.20;0.20;;;;;;;6.25;55.22;103270.81;5103956;28;20036;-82
2023/02/09 11:50:58;;;;;;;0.10;0.10;;;;;;;6.34;55.41;103255.34;5101906;28;20016;-82
2023/02/09 11:53:33;;;;;;;0.20;0.20;;;;;;;6.37;55.76;103266.00;5099968;28;20092;-81
2023/02/09 11:56:02;;;;;;;0.43;0.43;;;;;;;6.54;55.42;103273.59;5101389;28;20372;-81
2023/02/09 12:01:19;;;;;;;0.23;0.23;;;;;;;6.77;55.09;103261.25;5108271;27;1157794;-82
2023/02/09 12:04:01;;;;;;;0.22;0.22;;;;;;;6.80;54.56;103249.09;5122754;27;20281;-82
2023/02/09 12:06:34;;;;;;;0.32;0.32;;;;;;;6.73;55.00;103255.00;5116207;28;20024;-82
2023/02/09 12:12:02;;;;;;;0.20;0.20;;;;;;;6.95;55.07;103261.91;5121122;27;1191559;-82
2023/02/09 12:17:17;;;;;;;0.13;0.13;;;;;;;7.17;55.03;103259.97;5120266;27;20137;-83
2023/02/09 12:19:52;;;;;;;0.20;0.20;;;;;;;7.29;54.48;103248.94;5120853;28;20055;-82
2023/02/09 12:28:11;;;;;;;0.20;0.20;;;;;;;7.60;54.54;103241.97;5117889;27;20411;-81
2023/02/09 12:41:50;;;;;;;1.07;0.97;;;;;;;7.94;54.05;103237.75;5117913;27;1166650;-82
2023/02/09 12:46:54;;;;;;;0.52;0.52;;;;;;;7.88;54.69;103221.72;5089099;27;1856189;-81
2023/02/09 12:54:43;;;;;;;0.30;0.30;;;;;;;7.97;55.39;103227.25;5104501;27;1156933;-82
2023/02/09 13:02:49;;;;;;;1.42;1.42;;;;;;;8.01;55.10;103229.16;5109893;27;20367;-81
2023/02/09 13:05:20;;;;;;;0.40;0.40;;;;;;;7.94;54.67;103235.09;5093143;28;20518;-82
2023/02/09 13:08:14;;;;;;;0.22;0.22;;;;;;;8.03;55.28;103223.91;5094103;28;20024;-82
2023/02/09 13:13:31;;;;;;;1.58;1.48;;;;;;;8.00;55.64;103221.16;5115213;27;20764;-81
2023/02/09 13:21:41;;;;;;;0.10;0.10;;;;;;;7.96;55.29;103222.81;5130375;27;20396;-82
2023/02/09 13:24:18;;;;;;;0.30;0.30;;;;;;;7.84;56.00;103230.38;5106947;28;20071;-81
2023/02/09 13:26:54;;;;;;;0.43;0.38;;;;;;;7.85;55.71;103221.59;5098998;28;20020;-82